Paradise Inn, Washington
Current Conditions -  °F | °C
As of 6:58 PM on Sunday 23 Nov 2014 (Local Time) from KTCM Reporting Station
Clear Clear  
Wind Chill: 42°   Ceiling: Unl
Heat Index: 45°   Visibility: 10mi
Dew Point: 43°   Wind: 6mph
Humidity: 92%   Direction: 180°S
Pressure: 30.27"   Gusts: NA
Location:  47.16°N, 122.57°W
Report Text: KTCM 240258Z AUTO 18005KT 10SM CLR 07/06 A3027 RMK AO2 SLP256 T00710059 52024 $
Loading
Personal Weather Stations






























Interactive Weather Map New forecast layout! Learn more

10-Day Weather Forecast

Advertisements
Track Severe Weather on mobile